createdAt,value
2023-04-28T00:02:03.749Z,2.70
2023-04-28T00:04:31.196Z,2.70
2023-04-28T00:06:58.907Z,2.63
2023-04-28T00:09:26.292Z,2.70
2023-04-28T00:11:53.753Z,2.73
2023-04-28T00:14:21.202Z,2.80
2023-04-28T00:16:48.265Z,2.70
2023-04-28T00:19:15.536Z,2.73
2023-04-28T00:21:42.963Z,2.80
2023-04-28T00:24:09.939Z,2.67
2023-04-28T00:26:37.353Z,2.70
2023-04-28T00:29:04.888Z,2.70
2023-04-28T00:31:32.505Z,2.70
2023-04-28T00:33:59.946Z,2.70
2023-04-28T00:36:31.842Z,2.70
2023-04-28T00:38:59.657Z,2.70
2023-04-28T00:41:26.887Z,2.70
2023-04-28T00:43:53.910Z,2.73
2023-04-28T00:46:30.950Z,2.67
2023-04-28T00:48:58.686Z,2.67
2023-04-28T00:51:27.591Z,2.70
2023-04-28T00:53:55.008Z,2.70
2023-04-28T00:56:22.097Z,2.60
2023-04-28T00:58:49.063Z,2.63
2023-04-28T01:01:16.840Z,2.70
2023-04-28T01:03:45.019Z,2.70
2023-04-28T01:06:14.377Z,2.63
2023-04-28T01:08:42.478Z,2.60
2023-04-28T01:11:15.079Z,2.80
2023-04-28T01:14:06.567Z,2.63
2023-04-28T01:16:38.386Z,2.60
2023-04-28T01:19:12.068Z,2.73
2023-04-28T01:21:39.985Z,2.67
2023-04-28T01:24:19.536Z,2.60
2023-04-28T01:26:47.292Z,2.60
2023-04-28T01:29:14.800Z,2.60
2023-04-28T01:31:43.066Z,2.60
2023-04-28T01:34:11.154Z,2.60
2023-04-28T01:36:38.620Z,2.67
2023-04-28T01:39:06.067Z,2.60
2023-04-28T01:41:36.472Z,2.67
2023-04-28T01:44:06.175Z,2.70
2023-04-28T01:46:33.982Z,2.50
2023-04-28T01:49:01.728Z,2.70
2023-04-28T01:51:28.710Z,2.53
2023-04-28T01:53:56.083Z,2.80
2023-04-28T01:56:24.073Z,2.83
2023-04-28T01:58:52.572Z,2.83
2023-04-28T02:01:20.397Z,2.60
2023-04-28T02:03:49.120Z,2.80
2023-04-28T02:06:16.887Z,2.70
2023-04-28T02:08:44.298Z,2.63
2023-04-28T02:11:13.217Z,2.80
2023-04-28T02:13:40.219Z,2.70
2023-04-28T02:16:07.691Z,2.70
2023-04-28T02:18:36.100Z,2.50
2023-04-28T02:21:11.788Z,2.60
2023-04-28T02:23:40.363Z,2.67
2023-04-28T02:26:08.063Z,2.60
2023-04-28T02:28:35.530Z,2.70
2023-04-28T02:31:11.407Z,2.60
2023-04-28T02:33:39.051Z,2.60
2023-04-28T02:36:08.845Z,2.60
2023-04-28T02:38:36.390Z,2.60
2023-04-28T02:41:09.223Z,2.70
2023-04-28T02:43:37.972Z,2.60
2023-04-28T02:46:05.846Z,2.63
2023-04-28T02:48:35.631Z,2.60
2023-04-28T02:51:03.605Z,2.60
2023-04-28T02:53:32.216Z,2.70
2023-04-28T02:56:01.892Z,2.60
2023-04-28T02:58:29.658Z,2.60
2023-04-28T03:00:56.776Z,2.60
2023-04-28T03:03:23.888Z,2.50
2023-04-28T03:05:50.941Z,2.70
2023-04-28T03:08:18.902Z,2.57
2023-04-28T03:10:45.989Z,2.60
2023-04-28T03:13:13.794Z,2.63
2023-04-28T03:15:42.471Z,2.70
2023-04-28T03:18:10.288Z,2.70
2023-04-28T03:20:37.263Z,2.60
2023-04-28T03:23:04.790Z,2.67
2023-04-28T03:25:32.356Z,2.60
2023-04-28T03:27:59.365Z,2.60
2023-04-28T03:30:26.549Z,2.50
2023-04-28T03:32:53.704Z,2.67
2023-04-28T03:35:21.580Z,2.60
2023-04-28T03:37:49.291Z,2.60
2023-04-28T03:40:18.025Z,2.63
2023-04-28T03:43:17.074Z,2.70
2023-04-28T03:46:04.611Z,2.50
2023-04-28T03:48:32.452Z,2.60
2023-04-28T03:50:59.529Z,2.60
2023-04-28T03:53:27.070Z,2.70
2023-04-28T03:55:54.545Z,2.60
2023-04-28T03:58:21.684Z,2.63
2023-04-28T04:00:49.286Z,2.50
2023-04-28T04:03:16.346Z,2.70
2023-04-28T04:05:44.860Z,2.60
2023-04-28T04:08:12.277Z,2.63
2023-04-28T04:10:39.673Z,2.63
2023-04-28T04:13:07.730Z,2.60
2023-04-28T04:15:34.779Z,2.60
2023-04-28T04:18:02.060Z,2.60
2023-04-28T04:20:38.014Z,2.60
2023-04-28T04:23:05.464Z,2.60
2023-04-28T04:25:32.995Z,2.67
2023-04-28T04:28:00.767Z,2.60
2023-04-28T04:30:28.250Z,2.57
2023-04-28T04:32:55.831Z,2.70
2023-04-28T04:35:23.147Z,2.67
2023-04-28T04:37:51.482Z,2.60
2023-04-28T04:40:18.556Z,2.50
2023-04-28T04:42:49.343Z,2.70
2023-04-28T04:45:19.294Z,2.57
2023-04-28T04:47:47.392Z,2.57
2023-04-28T04:50:14.881Z,2.60
2023-04-28T04:52:42.459Z,2.60
2023-04-28T04:55:11.225Z,2.50
2023-04-28T04:57:41.066Z,2.57
2023-04-28T05:00:15.590Z,2.57
2023-04-28T05:02:43.377Z,2.60
2023-04-28T05:05:20.369Z,2.60
2023-04-28T05:07:55.980Z,2.60
2023-04-28T05:10:24.550Z,2.60
2023-04-28T05:12:51.813Z,2.63
2023-04-28T05:15:19.248Z,2.60
2023-04-28T05:18:09.812Z,2.53
2023-04-28T05:20:37.780Z,2.60
2023-04-28T05:23:06.604Z,2.60
2023-04-28T05:25:34.201Z,2.57
2023-04-28T05:28:07.186Z,2.53
2023-04-28T05:30:34.938Z,2.67
2023-04-28T05:33:02.604Z,2.50
2023-04-28T05:35:31.421Z,2.50
2023-04-28T05:37:59.207Z,2.60
2023-04-28T05:40:26.758Z,2.50
2023-04-28T05:42:54.322Z,2.50
2023-04-28T05:45:22.023Z,2.50
2023-04-28T05:47:50.047Z,2.43
2023-04-28T05:50:17.179Z,2.40
2023-04-28T05:52:44.576Z,2.50
2023-04-28T05:55:12.074Z,2.50
2023-04-28T05:57:51.944Z,2.50
2023-04-28T06:00:21.188Z,2.50
2023-04-28T06:02:49.190Z,2.50
2023-04-28T06:05:17.325Z,2.70
2023-04-28T06:07:47.236Z,2.50
2023-04-28T06:10:15.573Z,2.60
2023-04-28T06:12:42.990Z,2.50
2023-04-28T06:15:10.900Z,2.53
2023-04-28T06:17:39.813Z,2.40
2023-04-28T06:20:10.520Z,2.60
2023-04-28T06:22:38.667Z,2.50
2023-04-28T06:25:07.907Z,2.40
2023-04-28T06:27:40.458Z,2.43
2023-04-28T06:30:08.594Z,2.53
2023-04-28T06:32:35.915Z,2.63
2023-04-28T06:35:02.939Z,2.50
2023-04-28T06:37:29.965Z,2.60
2023-04-28T06:39:58.647Z,2.70
2023-04-28T06:42:26.949Z,2.43
2023-04-28T06:45:00.258Z,2.50
2023-04-28T06:47:28.385Z,2.60
2023-04-28T06:49:55.533Z,2.50
2023-04-28T06:52:27.177Z,2.67
2023-04-28T06:55:00.779Z,2.60
2023-04-28T06:57:30.607Z,2.60
2023-04-28T06:59:57.590Z,2.60
2023-04-28T07:02:24.674Z,2.60
2023-04-28T07:04:52.322Z,2.70
2023-04-28T07:07:19.738Z,2.60
2023-04-28T07:09:46.743Z,2.63
2023-04-28T07:12:14.844Z,2.70
2023-04-28T07:14:42.297Z,2.77
2023-04-28T07:17:09.231Z,2.83
2023-04-28T07:19:36.349Z,2.60
2023-04-28T07:22:03.596Z,2.70
2023-04-28T07:24:31.122Z,2.90
2023-04-28T07:26:58.552Z,2.60
2023-04-28T07:29:28.769Z,2.67
2023-04-28T07:31:55.794Z,2.60
2023-04-28T07:34:23.248Z,2.63
2023-04-28T07:36:50.665Z,2.73
2023-04-28T07:39:18.415Z,2.57
2023-04-28T07:41:45.598Z,2.70
2023-04-28T07:44:12.580Z,2.63
2023-04-28T07:46:39.753Z,2.80
2023-04-28T07:49:08.247Z,2.70
2023-04-28T07:51:35.349Z,2.63
2023-04-28T07:54:02.319Z,2.67
2023-04-28T07:56:30.022Z,2.70
2023-04-28T07:58:56.999Z,2.60
2023-04-28T08:03:49.469Z,2.70
2023-04-28T08:06:17.123Z,2.70
2023-04-28T08:08:44.662Z,2.73
2023-04-28T08:11:11.926Z,2.70
2023-04-28T08:13:39.360Z,2.70
2023-04-28T08:16:07.298Z,2.60
2023-04-28T08:18:34.836Z,2.70
2023-04-28T08:21:01.948Z,2.70
2023-04-28T08:23:30.600Z,2.77
2023-04-28T08:25:58.495Z,2.60
2023-04-28T08:28:26.215Z,2.63
2023-04-28T08:30:55.370Z,2.70
2023-04-28T08:33:23.809Z,2.60
2023-04-28T08:35:51.406Z,2.70
2023-04-28T08:38:18.741Z,2.60
2023-04-28T08:40:45.808Z,2.70
2023-04-28T08:43:14.850Z,2.80
2023-04-28T08:45:45.504Z,2.70
2023-04-28T08:48:23.059Z,2.67
2023-04-28T08:50:54.455Z,2.80
2023-04-28T08:53:26.583Z,2.67
2023-04-28T08:55:58.600Z,2.70
2023-04-28T08:58:27.536Z,2.57
2023-04-28T09:00:55.070Z,2.80
2023-04-28T09:03:22.488Z,2.60
2023-04-28T09:05:50.142Z,2.67
2023-04-28T09:08:18.057Z,2.70
2023-04-28T09:10:45.512Z,2.60
2023-04-28T09:13:26.164Z,2.70
2023-04-28T09:16:01.044Z,2.60
2023-04-28T09:18:29.011Z,2.70
2023-04-28T09:21:08.840Z,2.70
2023-04-28T09:23:51.910Z,2.57
2023-04-28T09:26:19.412Z,2.60
2023-04-28T09:28:46.793Z,2.73
2023-04-28T09:31:25.392Z,2.60
2023-04-28T09:33:59.994Z,2.63
2023-04-28T09:36:31.561Z,2.67
2023-04-28T09:39:00.582Z,2.60
2023-04-28T09:41:45.142Z,2.70
2023-04-28T09:44:21.409Z,2.73
2023-04-28T09:46:48.638Z,2.60
2023-04-28T09:49:15.659Z,2.70
2023-04-28T09:51:43.181Z,2.60
2023-04-28T09:54:11.565Z,2.70
2023-04-28T09:56:42.509Z,2.70
2023-04-28T09:59:09.937Z,2.60
2023-04-28T10:01:41.722Z,2.70
2023-04-28T10:04:11.935Z,2.67
2023-04-28T10:06:40.373Z,2.60
2023-04-28T10:09:08.451Z,2.80
2023-04-28T10:11:36.069Z,2.70
2023-04-28T10:14:03.005Z,2.70
2023-04-28T10:16:33.029Z,2.60
2023-04-28T10:19:03.123Z,2.67
2023-04-28T10:21:41.170Z,2.80
2023-04-28T10:24:22.965Z,2.70
2023-04-28T10:27:08.278Z,2.60
2023-04-28T10:29:36.642Z,2.67
2023-04-28T10:32:26.385Z,2.60
2023-04-28T10:34:53.944Z,2.57
2023-04-28T10:38:08.122Z,2.60
2023-04-28T10:41:02.404Z,2.50
2023-04-28T10:43:30.383Z,2.53
2023-04-28T10:46:00.008Z,2.60
2023-04-28T10:48:30.841Z,2.53
2023-04-28T10:51:03.722Z,2.50
2023-04-28T10:53:48.962Z,2.60
2023-04-28T10:56:27.091Z,2.63
2023-04-28T10:59:00.750Z,2.60
2023-04-28T11:01:34.569Z,2.67
2023-04-28T11:04:13.936Z,2.50
2023-04-28T11:06:50.435Z,2.60
2023-04-28T11:09:17.540Z,2.53
2023-04-28T11:12:08.062Z,2.70
2023-04-28T11:14:40.827Z,2.50
2023-04-28T11:17:13.649Z,2.50
2023-04-28T11:19:44.880Z,2.70
2023-04-28T11:22:22.636Z,2.60
2023-04-28T11:25:03.784Z,2.53
2023-04-28T11:27:33.547Z,2.50
2023-04-28T11:30:01.615Z,2.60
2023-04-28T11:32:35.319Z,2.50
2023-04-28T11:35:04.513Z,2.50
2023-04-28T11:37:31.990Z,2.50
2023-04-28T11:39:59.064Z,2.50
2023-04-28T11:42:28.091Z,2.50
2023-04-28T11:44:56.306Z,2.50
2023-04-28T11:47:34.703Z,2.50
2023-04-28T11:50:03.194Z,2.40
2023-04-28T11:52:30.897Z,2.47
2023-04-28T11:55:02.052Z,2.47
2023-04-28T11:57:29.216Z,2.47
2023-04-28T12:00:21.936Z,2.50
2023-04-28T12:02:49.328Z,2.40
2023-04-28T12:05:16.812Z,2.40
2023-04-28T12:07:45.333Z,2.40
2023-04-28T12:10:18.670Z,2.40
2023-04-28T12:12:52.089Z,2.47
2023-04-28T12:15:21.843Z,2.40
2023-04-28T12:17:50.609Z,2.37
2023-04-28T12:20:39.064Z,2.30
2023-04-28T12:23:07.544Z,2.40
2023-04-28T12:25:45.005Z,2.30
2023-04-28T12:28:12.257Z,2.30
2023-04-28T12:30:41.748Z,2.30
2023-04-28T12:33:27.712Z,2.30
2023-04-28T12:35:58.838Z,2.30
2023-04-28T12:38:28.276Z,2.33
2023-04-28T12:40:56.524Z,2.30
2023-04-28T12:43:24.436Z,2.40
2023-04-28T12:45:53.929Z,2.30
2023-04-28T12:48:24.863Z,2.30
2023-04-28T12:50:52.398Z,2.30
2023-04-28T12:53:19.852Z,2.17
2023-04-28T12:55:46.811Z,2.40
2023-04-28T12:58:13.895Z,2.27
2023-04-28T13:00:44.242Z,2.20
2023-04-28T13:03:11.388Z,2.13
2023-04-28T13:05:38.902Z,2.20
2023-04-28T13:08:06.546Z,2.20
2023-04-28T13:10:33.465Z,2.03
2023-04-28T13:13:01.095Z,2.07
2023-04-28T13:15:28.113Z,2.30
2023-04-28T13:17:55.088Z,2.30
2023-04-28T13:20:22.161Z,2.30
2023-04-28T13:22:49.153Z,2.20
2023-04-28T13:25:16.226Z,2.20
2023-04-28T13:27:43.656Z,2.30
2023-04-28T13:30:12.446Z,2.30
2023-04-28T13:32:39.914Z,2.23
2023-04-28T13:35:08.870Z,2.20
2023-04-28T13:37:42.352Z,2.20
2023-04-28T13:40:11.361Z,2.10
2023-04-28T13:42:38.806Z,2.33
2023-04-28T13:45:06.689Z,2.20
2023-04-28T13:47:34.758Z,2.20
2023-04-28T13:50:03.330Z,2.20
2023-04-28T13:52:30.748Z,2.27
2023-04-28T13:54:58.248Z,2.20
2023-04-28T13:57:25.373Z,2.30
2023-04-28T13:59:52.845Z,2.30
2023-04-28T14:02:20.479Z,2.30
2023-04-28T14:04:50.609Z,2.40
2023-04-28T14:07:19.342Z,2.23
2023-04-28T14:09:47.098Z,2.20
2023-04-28T14:12:15.303Z,2.30
2023-04-28T14:14:43.256Z,2.17
2023-04-28T14:17:10.697Z,2.30
2023-04-28T14:19:38.226Z,2.20
2023-04-28T14:22:05.302Z,2.27
2023-04-28T14:24:32.804Z,2.20
2023-04-28T14:26:59.775Z,2.30
2023-04-28T14:29:27.170Z,2.30
2023-04-28T14:31:54.175Z,2.20
2023-04-28T14:34:21.135Z,2.30
2023-04-28T14:36:48.548Z,2.20
2023-04-28T14:39:17.719Z,2.20
2023-04-28T14:41:47.961Z,2.20
2023-04-28T14:44:17.626Z,2.10
2023-04-28T14:46:44.980Z,2.23
2023-04-28T14:49:12.136Z,2.40
2023-04-28T14:51:39.120Z,2.20
2023-04-28T14:54:09.049Z,2.20
2023-04-28T14:56:36.559Z,2.30
2023-04-28T14:59:04.238Z,2.17
2023-04-28T15:01:33.800Z,2.10
2023-04-28T15:04:01.810Z,2.17
2023-04-28T15:06:29.109Z,2.10
2023-04-28T15:08:56.155Z,2.13
2023-04-28T15:11:23.306Z,2.00
2023-04-28T15:13:50.627Z,2.13
2023-04-28T15:16:18.551Z,2.20
2023-04-28T15:18:46.066Z,2.20
2023-04-28T15:21:13.461Z,2.20
2023-04-28T15:23:41.141Z,2.20
2023-04-28T15:26:10.720Z,2.20
2023-04-28T15:28:38.224Z,2.27
2023-04-28T15:31:05.295Z,2.27
2023-04-28T15:33:34.572Z,2.30
2023-04-28T15:36:06.558Z,2.37
2023-04-28T15:38:36.676Z,2.30
2023-04-28T15:41:04.152Z,2.20
2023-04-28T15:43:31.682Z,2.27
2023-04-28T15:46:00.800Z,2.10
2023-04-28T15:48:28.397Z,2.20
2023-04-28T15:50:56.089Z,2.10
2023-04-28T15:53:24.609Z,2.30
2023-04-28T15:55:52.209Z,2.30
2023-04-28T15:58:20.214Z,2.20
2023-04-28T16:00:48.301Z,2.30
2023-04-28T16:03:16.786Z,2.20
2023-04-28T16:05:44.214Z,2.20
2023-04-28T16:08:12.284Z,2.30
2023-04-28T16:10:42.288Z,2.30
2023-04-28T16:13:10.867Z,2.20
2023-04-28T16:15:39.373Z,2.27
2023-04-28T16:18:07.147Z,2.20
2023-04-28T16:20:34.551Z,2.30
2023-04-28T16:23:07.425Z,2.30
2023-04-28T16:25:35.556Z,2.30
2023-04-28T16:28:06.960Z,2.37
2023-04-28T16:30:35.746Z,2.33
2023-04-28T16:33:02.919Z,2.30
2023-04-28T16:35:30.117Z,2.30
2023-04-28T16:37:57.157Z,2.40
2023-04-28T16:40:24.226Z,2.40
2023-04-28T16:42:51.615Z,2.30
2023-04-28T16:45:19.038Z,2.30
2023-04-28T16:47:46.654Z,2.40
2023-04-28T16:50:14.675Z,2.30
2023-04-28T16:52:42.373Z,2.30
2023-04-28T16:55:10.647Z,2.50
2023-04-28T16:57:38.160Z,2.50
2023-04-28T17:00:07.076Z,2.33
2023-04-28T17:02:34.521Z,2.33
2023-04-28T17:05:02.350Z,2.40
2023-04-28T17:07:29.757Z,2.43
2023-04-28T17:09:56.946Z,2.50
2023-04-28T17:12:24.384Z,2.40
2023-04-28T17:14:52.674Z,2.53
2023-04-28T17:17:20.364Z,2.43
2023-04-28T17:19:48.082Z,2.40
2023-04-28T17:22:15.194Z,2.40
2023-04-28T17:24:43.753Z,2.50
2023-04-28T17:27:11.476Z,2.50
2023-04-28T17:29:39.255Z,2.60
2023-04-28T17:32:06.694Z,2.47
2023-04-28T17:34:33.897Z,2.40
2023-04-28T17:37:00.884Z,2.40
2023-04-28T17:39:28.300Z,2.40
2023-04-28T17:41:57.790Z,2.50
2023-04-28T17:44:25.300Z,2.40
2023-04-28T17:46:52.733Z,2.33
2023-04-28T17:49:20.431Z,2.40
2023-04-28T17:51:47.504Z,2.33
2023-04-28T17:54:14.461Z,2.40
2023-04-28T17:56:41.859Z,2.37
2023-04-28T17:59:09.395Z,2.30
2023-04-28T18:01:36.929Z,2.30
2023-04-28T18:04:04.298Z,2.40
2023-04-28T18:06:31.839Z,2.33
2023-04-28T18:08:59.392Z,2.50
2023-04-28T18:11:27.977Z,2.33
2023-04-28T18:13:55.867Z,2.40
2023-04-28T18:16:23.368Z,2.40
2023-04-28T18:18:51.488Z,2.30
2023-04-28T18:21:18.615Z,2.40
2023-04-28T18:23:46.997Z,2.40
2023-04-28T18:26:13.973Z,2.30
2023-04-28T18:28:41.575Z,2.40
2023-04-28T18:31:09.926Z,2.30
2023-04-28T18:33:39.048Z,2.37
2023-04-28T18:36:07.682Z,2.27
2023-04-28T18:38:36.682Z,2.40
2023-04-28T18:41:18.726Z,2.23
2023-04-28T18:43:46.535Z,2.40
2023-04-28T18:46:14.632Z,2.27
2023-04-28T18:48:43.249Z,2.30
2023-04-28T18:51:11.130Z,2.30
2023-04-28T18:53:38.638Z,2.30
2023-04-28T18:56:05.793Z,2.40
2023-04-28T18:59:33.855Z,2.30
2023-04-28T19:02:26.197Z,2.40
2023-04-28T19:08:43.267Z,2.37
2023-04-28T19:22:54.227Z,2.40
2023-04-28T19:39:50.649Z,2.50
2023-04-28T19:42:20.050Z,2.50
2023-04-28T19:44:48.657Z,2.43
2023-04-28T19:47:33.168Z,2.47
2023-04-28T19:50:00.473Z,2.50
2023-04-28T19:52:28.180Z,2.57
2023-04-28T19:54:55.818Z,2.40
2023-04-28T19:57:23.561Z,2.50
2023-04-28T19:59:55.502Z,2.60
2023-04-28T20:02:23.325Z,2.43
2023-04-28T20:04:51.602Z,2.50
2023-04-28T20:07:21.653Z,2.57
2023-04-28T20:10:49.126Z,2.47
2023-04-28T20:19:42.995Z,2.40
2023-04-28T20:26:01.537Z,2.67
2023-04-28T20:28:49.634Z,2.50
2023-04-28T20:35:22.377Z,2.53
2023-04-28T20:38:22.381Z,2.70
2023-04-28T20:41:17.703Z,2.60
2023-04-28T20:44:09.409Z,2.67
2023-04-28T20:46:42.009Z,2.60
2023-04-28T20:49:18.220Z,2.77
2023-04-28T20:55:05.861Z,2.63
2023-04-28T20:57:40.721Z,2.67
2023-04-28T21:00:43.119Z,2.70
2023-04-28T21:03:23.859Z,2.70
2023-04-28T21:09:55.954Z,2.60
2023-04-28T21:16:22.965Z,2.70
2023-04-28T21:22:32.210Z,2.60
2023-04-28T21:28:28.719Z,2.50
2023-04-28T21:31:39.283Z,2.57
2023-04-28T21:34:23.622Z,2.60
2023-04-28T21:36:53.664Z,2.57
2023-04-28T21:39:23.239Z,2.70
2023-04-28T21:41:57.578Z,2.50
2023-04-28T21:47:43.460Z,2.53
2023-04-28T21:50:16.088Z,2.60
2023-04-28T21:52:46.291Z,2.50
2023-04-28T21:58:49.386Z,2.70
2023-04-28T22:01:17.716Z,2.50
2023-04-28T22:07:09.687Z,2.60
2023-04-28T22:09:42.755Z,2.60
2023-04-28T22:12:25.171Z,2.60
2023-04-28T22:15:02.987Z,2.50
2023-04-28T22:17:30.015Z,2.50
2023-04-28T22:20:05.596Z,2.50
2023-04-28T22:22:47.910Z,2.57
2023-04-28T22:28:27.133Z,2.60
2023-04-28T22:31:12.939Z,2.50
2023-04-28T22:40:27.948Z,2.50
2023-04-28T22:42:58.140Z,2.53
2023-04-28T22:45:26.648Z,2.50
2023-04-28T22:47:55.825Z,2.40
2023-04-28T22:50:25.104Z,2.40
2023-04-28T22:53:00.374Z,2.50
2023-04-28T22:55:27.938Z,2.47
2023-04-28T22:57:55.437Z,2.50
2023-04-28T23:00:23.301Z,2.40
2023-04-28T23:02:50.391Z,2.50
2023-04-28T23:05:17.872Z,2.37
2023-04-28T23:07:46.121Z,2.50
2023-04-28T23:10:14.789Z,2.53
2023-04-28T23:12:41.816Z,2.43
2023-04-28T23:15:09.566Z,2.50
2023-04-28T23:17:37.192Z,2.47
2023-04-28T23:20:06.330Z,2.50
2023-04-28T23:22:34.346Z,2.37
2023-04-28T23:25:01.476Z,2.40
2023-04-28T23:27:28.868Z,2.50
2023-04-28T23:29:55.965Z,2.57
2023-04-28T23:32:23.362Z,2.50
2023-04-28T23:34:50.795Z,2.40
2023-04-28T23:37:17.840Z,2.40
2023-04-28T23:39:45.934Z,2.53
2023-04-28T23:42:13.342Z,2.50
2023-04-28T23:44:42.352Z,2.47
2023-04-28T23:47:09.760Z,2.50
2023-04-28T23:49:41.560Z,2.60
2023-04-28T23:52:09.776Z,2.60
2023-04-28T23:54:36.868Z,2.47
2023-04-28T23:57:03.976Z,2.57
2023-04-28T23:59:31.025Z,2.60
